sensor_id;sensor_type;location;lat;lon;timestamp;pressure;altitude;pressure_sealevel;temperature;humidity
42601;BME280;28229;48.856;9.088;2022-09-20T00:02:02;98426.41;;;7.61;98.32
42601;BME280;28229;48.856;9.088;2022-09-20T00:04:28;98419.88;;;7.72;98.48
42601;BME280;28229;48.856;9.088;2022-09-20T00:06:53;98419.69;;;7.74;98.94
42601;BME280;28229;48.856;9.088;2022-09-20T00:09:19;98419.69;;;7.74;98.97
42601;BME280;28229;48.856;9.088;2022-09-20T00:11:45;98426.34;;;7.76;99.54
42601;BME280;28229;48.856;9.088;2022-09-20T00:14:11;98423.59;;;7.85;99.10
42601;BME280;28229;48.856;9.088;2022-09-20T00:16:39;98418.28;;;7.78;99.64
42601;BME280;28229;48.856;9.088;2022-09-20T00:19:06;98426.66;;;7.88;98.02
42601;BME280;28229;48.856;9.088;2022-09-20T00:21:34;98421.00;;;7.85;96.71
42601;BME280;28229;48.856;9.088;2022-09-20T00:24:01;98425.59;;;7.82;97.26
42601;BME280;28229;48.856;9.088;2022-09-20T00:26:27;98418.19;;;7.86;96.59
42601;BME280;28229;48.856;9.088;2022-09-20T00:28:54;98416.91;;;7.82;97.17
42601;BME280;28229;48.856;9.088;2022-09-20T00:31:20;98420.03;;;7.71;97.66
42601;BME280;28229;48.856;9.088;2022-09-20T00:33:46;98426.66;;;7.67;98.12
42601;BME280;28229;48.856;9.088;2022-09-20T00:36:31;98423.03;;;7.68;98.77
42601;BME280;28229;48.856;9.088;2022-09-20T00:39:02;98420.41;;;7.68;99.00
42601;BME280;28229;48.856;9.088;2022-09-20T00:41:29;98420.03;;;7.71;98.72
42601;BME280;28229;48.856;9.088;2022-09-20T00:43:56;98419.53;;;7.82;98.79
42601;BME280;28229;48.856;9.088;2022-09-20T00:46:39;98424.78;;;7.82;98.90
42601;BME280;28229;48.856;9.088;2022-09-20T00:49:18;98415.94;;;7.83;98.67
42601;BME280;28229;48.856;9.088;2022-09-20T00:51:51;98419.53;;;7.82;98.37
42601;BME280;28229;48.856;9.088;2022-09-20T00:54:21;98422.56;;;7.79;98.32
42601;BME280;28229;48.856;9.088;2022-09-20T00:56:47;98419.94;;;7.79;98.12
42601;BME280;28229;48.856;9.088;2022-09-20T00:59:16;98420.91;;;7.78;98.48
42601;BME280;28229;48.856;9.088;2022-09-20T01:04:30;98417.50;;;7.77;98.09
42601;BME280;28229;48.856;9.088;2022-09-20T01:06:58;98413.06;;;7.78;98.00
42601;BME280;28229;48.856;9.088;2022-09-20T01:09:26;98413.50;;;7.81;98.93
42601;BME280;28229;48.856;9.088;2022-09-20T01:11:55;98416.91;;;7.82;98.74
42601;BME280;28229;48.856;9.088;2022-09-20T01:14:22;98418.19;;;7.86;99.04
42601;BME280;28229;48.856;9.088;2022-09-20T01:16:53;98418.38;;;7.85;99.04
42601;BME280;28229;48.856;9.088;2022-09-20T01:19:42;98418.81;;;7.88;98.20
42601;BME280;28229;48.856;9.088;2022-09-20T01:22:24;98410.63;;;7.76;99.08
42601;BME280;28229;48.856;9.088;2022-09-20T01:25:16;98412.69;;;7.81;98.47
42601;BME280;28229;48.856;9.088;2022-09-20T01:27:48;98409.47;;;7.79;98.49
42601;BME280;28229;48.856;9.088;2022-09-20T01:30:18;98417.50;;;7.77;98.61
42601;BME280;28229;48.856;9.088;2022-09-20T01:35:18;98417.06;;;7.74;98.42
42601;BME280;28229;48.856;9.088;2022-09-20T01:43:35;98416.91;;;7.82;98.11
42601;BME280;28229;48.856;9.088;2022-09-20T01:49:00;98411.06;;;7.80;98.66
42601;BME280;28229;48.856;9.088;2022-09-20T01:51:53;98413.75;;;7.87;97.35
42601;BME280;28229;48.856;9.088;2022-09-20T01:54:47;98412.50;;;7.82;96.54
42601;BME280;28229;48.856;9.088;2022-09-20T02:00:10;98407.56;;;7.94;95.38
42601;BME280;28229;48.856;9.088;2022-09-20T02:08:13;98413.16;;;7.91;96.77
42601;BME280;28229;48.856;9.088;2022-09-20T02:11:38;98416.81;;;7.90;97.37
42601;BME280;28229;48.856;9.088;2022-09-20T02:16:19;98420.16;;;7.84;98.73
42601;BME280;28229;48.856;9.088;2022-09-20T02:25:07;98411.81;;;7.95;99.06
42601;BME280;28229;48.856;9.088;2022-09-20T02:27:54;98413.41;;;7.96;99.15
42601;BME280;28229;48.856;9.088;2022-09-20T02:39:12;98412.19;;;7.92;98.81
42601;BME280;28229;48.856;9.088;2022-09-20T02:41:54;98411.56;;;7.90;98.56
42601;BME280;28229;48.856;9.088;2022-09-20T02:44:32;98409.94;;;7.89;98.40
42601;BME280;28229;48.856;9.088;2022-09-20T02:50:03;98405.13;;;7.93;98.72
42601;BME280;28229;48.856;9.088;2022-09-20T02:52:36;98397.25;;;7.93;98.43
42601;BME280;28229;48.856;9.088;2022-09-20T02:55:26;98403.53;;;7.92;97.99
42601;BME280;28229;48.856;9.088;2022-09-20T03:09:36;98420.47;;;7.96;94.56
42601;BME280;28229;48.856;9.088;2022-09-20T03:15:19;98428.25;;;8.11;94.16
42601;BME280;28229;48.856;9.088;2022-09-20T03:20:28;98426.16;;;7.99;94.67
42601;BME280;28229;48.856;9.088;2022-09-20T03:37:13;98431.13;;;7.94;95.83
42601;BME280;28229;48.856;9.088;2022-09-20T03:40:24;98432.16;;;7.93;95.48
42601;BME280;28229;48.856;9.088;2022-09-20T03:46:05;98423.88;;;8.18;92.79
42601;BME280;28229;48.856;9.088;2022-09-20T03:51:31;98433.47;;;8.04;93.88
42601;BME280;28229;48.856;9.088;2022-09-20T03:54:33;98433.63;;;8.03;94.33
42601;BME280;28229;48.856;9.088;2022-09-20T03:57:26;98436.81;;;7.98;95.04
42601;BME280;28229;48.856;9.088;2022-09-20T04:05:53;98436.25;;;8.03;96.02
42601;BME280;28229;48.856;9.088;2022-09-20T04:14:16;98441.75;;;8.08;96.49
42601;BME280;28229;48.856;9.088;2022-09-20T04:16:52;98445.00;;;8.10;96.40
42601;BME280;28229;48.856;9.088;2022-09-20T04:19:29;98440.00;;;8.15;96.28
42601;BME280;28229;48.856;9.088;2022-09-20T04:22:00;98439.59;;;8.18;96.04
42601;BME280;28229;48.856;9.088;2022-09-20T04:24:44;98449.28;;;8.17;96.47
42601;BME280;28229;48.856;9.088;2022-09-20T04:32:50;98442.97;;;8.33;97.23
42601;BME280;28229;48.856;9.088;2022-09-20T04:35:44;98450.63;;;8.35;98.20
42601;BME280;28229;48.856;9.088;2022-09-20T04:38:30;98449.59;;;8.29;98.75
42601;BME280;28229;48.856;9.088;2022-09-20T04:44:17;98448.97;;;8.27;98.80
42601;BME280;28229;48.856;9.088;2022-09-20T04:50:10;98454.78;;;8.23;99.01
42601;BME280;28229;48.856;9.088;2022-09-20T04:58:58;98466.91;;;8.30;96.32
42601;BME280;28229;48.856;9.088;2022-09-20T05:05:37;98475.56;;;8.24;96.83
42601;BME280;28229;48.856;9.088;2022-09-20T05:15:36;98484.66;;;8.07;97.94
42601;BME280;28229;48.856;9.088;2022-09-20T05:18:28;98482.28;;;8.12;97.79
42601;BME280;28229;48.856;9.088;2022-09-20T05:29:55;98488.97;;;8.14;98.15
42601;BME280;28229;48.856;9.088;2022-09-20T05:35:04;98485.69;;;8.06;98.04
42601;BME280;28229;48.856;9.088;2022-09-20T05:37:41;98494.41;;;8.13;98.17
42601;BME280;28229;48.856;9.088;2022-09-20T05:40:21;98498.47;;;8.15;99.38
42601;BME280;28229;48.856;9.088;2022-09-20T05:48:29;98498.13;;;8.25;96.45
42601;BME280;28229;48.856;9.088;2022-09-20T05:56:58;98502.75;;;8.45;94.23
42601;BME280;28229;48.856;9.088;2022-09-20T06:02:52;98503.63;;;8.52;94.24
42601;BME280;28229;48.856;9.088;2022-09-20T06:05:32;98506.50;;;8.57;92.83
42601;BME280;28229;48.856;9.088;2022-09-20T06:08:28;98505.75;;;8.63;93.07
42601;BME280;28229;48.856;9.088;2022-09-20T06:11:14;98509.84;;;8.72;91.19
42601;BME280;28229;48.856;9.088;2022-09-20T06:16:42;98513.19;;;8.88;91.28
42601;BME280;28229;48.856;9.088;2022-09-20T06:19:33;98502.34;;;8.98;91.11
42601;BME280;28229;48.856;9.088;2022-09-20T06:22:16;98509.22;;;8.99;90.03
42601;BME280;28229;48.856;9.088;2022-09-20T06:24:54;98507.63;;;9.04;89.57
42601;BME280;28229;48.856;9.088;2022-09-20T06:27:31;98516.34;;;9.11;90.47
42601;BME280;28229;48.856;9.088;2022-09-20T06:30:01;98519.22;;;9.17;90.93
42601;BME280;28229;48.856;9.088;2022-09-20T06:32:28;98520.69;;;9.26;90.87
42601;BME280;28229;48.856;9.088;2022-09-20T06:34:57;98517.25;;;9.32;91.38
42601;BME280;28229;48.856;9.088;2022-09-20T06:40:39;98519.78;;;9.53;88.05
42601;BME280;28229;48.856;9.088;2022-09-20T06:43:27;98523.47;;;9.59;88.13
42601;BME280;28229;48.856;9.088;2022-09-20T06:45:55;98533.38;;;9.64;87.85
42601;BME280;28229;48.856;9.088;2022-09-20T06:48:21;98529.75;;;9.65;88.11
42601;BME280;28229;48.856;9.088;2022-09-20T06:50:47;98534.19;;;9.71;88.49
42601;BME280;28229;48.856;9.088;2022-09-20T06:53:25;98527.34;;;9.77;88.50
42601;BME280;28229;48.856;9.088;2022-09-20T06:55:54;98531.03;;;9.82;88.17
42601;BME280;28229;48.856;9.088;2022-09-20T06:58:20;98528.59;;;9.87;87.07
42601;BME280;28229;48.856;9.088;2022-09-20T07:00:46;98532.69;;;10.03;86.08
42601;BME280;28229;48.856;9.088;2022-09-20T07:03:12;98546.88;;;10.09;86.27
42601;BME280;28229;48.856;9.088;2022-09-20T07:05:38;98533.72;;;10.09;86.01
42601;BME280;28229;48.856;9.088;2022-09-20T07:08:04;98539.16;;;10.14;86.35
42601;BME280;28229;48.856;9.088;2022-09-20T07:10:30;98535.59;;;10.28;85.86
42601;BME280;28229;48.856;9.088;2022-09-20T07:12:57;98541.25;;;10.39;85.23
42601;BME280;28229;48.856;9.088;2022-09-20T07:15:25;98549.78;;;10.54;84.04
42601;BME280;28229;48.856;9.088;2022-09-20T07:17:50;98549.41;;;10.57;82.91
42601;BME280;28229;48.856;9.088;2022-09-20T07:20:16;98548.59;;;10.70;82.14
42601;BME280;28229;48.856;9.088;2022-09-20T07:22:44;98549.00;;;10.80;82.60
42601;BME280;28229;48.856;9.088;2022-09-20T07:25:10;98551.81;;;10.79;81.83
42601;BME280;28229;48.856;9.088;2022-09-20T07:27:36;98557.69;;;10.81;81.32
42601;BME280;28229;48.856;9.088;2022-09-20T07:30:02;98557.28;;;10.84;81.36
42601;BME280;28229;48.856;9.088;2022-09-20T07:32:28;98563.34;;;10.84;81.50
42601;BME280;28229;48.856;9.088;2022-09-20T07:34:54;98564.34;;;10.90;80.38
42601;BME280;28229;48.856;9.088;2022-09-20T07:37:20;98559.09;;;10.90;79.92
42601;BME280;28229;48.856;9.088;2022-09-20T07:39:46;98560.31;;;10.81;79.88
42601;BME280;28229;48.856;9.088;2022-09-20T07:42:13;98558.09;;;10.91;80.87
42601;BME280;28229;48.856;9.088;2022-09-20T07:44:38;98562.34;;;11.05;80.05
42601;BME280;28229;48.856;9.088;2022-09-20T07:47:08;98565.53;;;11.21;80.21
42601;BME280;28229;48.856;9.088;2022-09-20T07:49:35;98558.44;;;11.28;79.08
42601;BME280;28229;48.856;9.088;2022-09-20T07:52:01;98562.88;;;11.34;78.81
42601;BME280;28229;48.856;9.088;2022-09-20T07:54:27;98566.75;;;11.25;78.37
42601;BME280;28229;48.856;9.088;2022-09-20T07:56:53;98575.06;;;11.29;78.92
42601;BME280;28229;48.856;9.088;2022-09-20T07:59:19;98577.28;;;11.25;77.97
42601;BME280;28229;48.856;9.088;2022-09-20T08:01:45;98567.13;;;11.35;77.25
42601;BME280;28229;48.856;9.088;2022-09-20T08:04:11;98568.34;;;11.39;77.19
42601;BME280;28229;48.856;9.088;2022-09-20T08:06:39;98573.59;;;11.46;76.00
42601;BME280;28229;48.856;9.088;2022-09-20T08:09:06;98576.44;;;11.45;75.93
42601;BME280;28229;48.856;9.088;2022-09-20T08:11:33;98583.72;;;11.42;76.38
42601;BME280;28229;48.856;9.088;2022-09-20T08:14:01;98583.28;;;11.59;76.35
42601;BME280;28229;48.856;9.088;2022-09-20T08:16:28;98583.22;;;11.79;75.32
42601;BME280;28229;48.856;9.088;2022-09-20T08:18:58;98576.69;;;11.95;74.89
42601;BME280;28229;48.856;9.088;2022-09-20T08:21:29;98585.16;;;12.10;74.17
42601;BME280;28229;48.856;9.088;2022-09-20T08:23:57;98585.81;;;12.37;73.76
42601;BME280;28229;48.856;9.088;2022-09-20T08:26:24;98583.56;;;12.66;71.25
42601;BME280;28229;48.856;9.088;2022-09-20T08:28:52;98590.72;;;12.59;70.77
42601;BME280;28229;48.856;9.088;2022-09-20T08:31:21;98594.94;;;12.67;71.99
42601;BME280;28229;48.856;9.088;2022-09-20T08:33:49;98594.53;;;12.63;68.98
42601;BME280;28229;48.856;9.088;2022-09-20T08:36:21;98592.72;;;12.64;68.53
42601;BME280;28229;48.856;9.088;2022-09-20T08:38:47;98591.53;;;12.60;67.90
42601;BME280;28229;48.856;9.088;2022-09-20T08:41:18;98591.91;;;12.88;68.96
42601;BME280;28229;48.856;9.088;2022-09-20T08:44:21;98588.25;;;13.14;67.23
42601;BME280;28229;48.856;9.088;2022-09-20T08:49:27;98579.94;;;13.11;67.24
42601;BME280;28229;48.856;9.088;2022-09-20T08:51:54;98585.22;;;13.11;66.86
42601;BME280;28229;48.856;9.088;2022-09-20T08:54:25;98592.34;;;13.10;65.91
42601;BME280;28229;48.856;9.088;2022-09-20T08:56:52;98588.34;;;12.76;66.08
42601;BME280;28229;48.856;9.088;2022-09-20T08:59:19;98584.19;;;12.62;65.46
42601;BME280;28229;48.856;9.088;2022-09-20T09:01:47;98587.97;;;12.72;64.59
42601;BME280;28229;48.856;9.088;2022-09-20T09:06:44;98577.03;;;13.19;64.71
42601;BME280;28229;48.856;9.088;2022-09-20T09:09:24;98577.16;;;13.49;62.99
42601;BME280;28229;48.856;9.088;2022-09-20T09:11:52;98575.16;;;13.63;62.37
42601;BME280;28229;48.856;9.088;2022-09-20T09:14:28;98574.59;;;13.80;62.60
42601;BME280;28229;48.856;9.088;2022-09-20T09:17:15;98578.06;;;14.11;63.42
42601;BME280;28229;48.856;9.088;2022-09-20T09:23:05;98577.69;;;14.37;59.90
42601;BME280;28229;48.856;9.088;2022-09-20T09:25:34;98584.94;;;14.12;60.74
42601;BME280;28229;48.856;9.088;2022-09-20T09:30:43;98581.31;;;13.94;60.55
42601;BME280;28229;48.856;9.088;2022-09-20T09:35:42;98575.06;;;13.88;59.69
42601;BME280;28229;48.856;9.088;2022-09-20T09:38:17;98571.47;;;13.83;59.88
42601;BME280;28229;48.856;9.088;2022-09-20T09:41:00;98574.47;;;13.86;59.73
42601;BME280;28229;48.856;9.088;2022-09-20T09:43:29;98574.25;;;13.88;60.04
42601;BME280;28229;48.856;9.088;2022-09-20T09:46:21;98572.19;;;13.90;59.24
42601;BME280;28229;48.856;9.088;2022-09-20T09:52:15;98570.06;;;13.99;57.49
42601;BME280;28229;48.856;9.088;2022-09-20T09:54:52;98568.97;;;13.88;58.05
42601;BME280;28229;48.856;9.088;2022-09-20T10:03:41;98574.13;;;13.83;58.73
42601;BME280;28229;48.856;9.088;2022-09-20T12:26:11;98537.16;;;19.16;37.47
42601;BME280;28229;48.856;9.088;2022-09-20T12:28:58;98538.88;;;18.90;36.97
42601;BME280;28229;48.856;9.088;2022-09-20T12:42:32;98537.81;;;19.39;36.63
42601;BME280;28229;48.856;9.088;2022-09-20T12:45:15;98526.63;;;19.42;36.15
42601;BME280;28229;48.856;9.088;2022-09-20T12:47:53;98526.66;;;19.52;35.15
42601;BME280;28229;48.856;9.088;2022-09-20T13:30:08;98531.25;;;17.02;42.86
42601;BME280;28229;48.856;9.088;2022-09-20T13:32:34;98525.97;;;16.85;43.86
42601;BME280;28229;48.856;9.088;2022-09-20T13:37:37;98532.72;;;16.75;45.91
42601;BME280;28229;48.856;9.088;2022-09-20T13:42:42;98535.09;;;16.26;45.35
42601;BME280;28229;48.856;9.088;2022-09-20T13:45:11;98530.66;;;15.46;47.07
42601;BME280;28229;48.856;9.088;2022-09-20T13:47:40;98541.38;;;15.39;48.16
42601;BME280;28229;48.856;9.088;2022-09-20T13:52:45;98547.50;;;15.04;50.22
42601;BME280;28229;48.856;9.088;2022-09-20T13:57:52;98553.75;;;14.74;50.37
42601;BME280;28229;48.856;9.088;2022-09-20T14:00:18;98556.28;;;14.51;51.31
42601;BME280;28229;48.856;9.088;2022-09-20T14:02:47;98549.53;;;14.13;50.73
42601;BME280;28229;48.856;9.088;2022-09-20T14:05:16;98549.09;;;13.85;50.58
42601;BME280;28229;48.856;9.088;2022-09-20T14:07:44;98550.25;;;13.89;51.73
42601;BME280;28229;48.856;9.088;2022-09-20T14:10:36;98551.66;;;13.92;52.64
42601;BME280;28229;48.856;9.088;2022-09-20T14:13:17;98534.63;;;13.69;53.08
42601;BME280;28229;48.856;9.088;2022-09-20T14:15:44;98540.50;;;13.71;53.05
42601;BME280;28229;48.856;9.088;2022-09-20T14:18:17;98544.13;;;13.59;53.82
42601;BME280;28229;48.856;9.088;2022-09-20T14:20:44;98537.19;;;13.58;53.91
42601;BME280;28229;48.856;9.088;2022-09-20T14:23:26;98538.00;;;13.58;54.48
42601;BME280;28229;48.856;9.088;2022-09-20T14:26:25;98532.44;;;13.48;55.69
42601;BME280;28229;48.856;9.088;2022-09-20T14:28:53;98544.19;;;13.52;55.08
42601;BME280;28229;48.856;9.088;2022-09-20T14:31:27;98537.94;;;13.65;54.62
42601;BME280;28229;48.856;9.088;2022-09-20T14:33:57;98538.00;;;13.58;54.49
42601;BME280;28229;48.856;9.088;2022-09-20T14:36:27;98534.28;;;13.66;54.47
42601;BME280;28229;48.856;9.088;2022-09-20T14:38:57;98531.63;;;13.66;55.04
42601;BME280;28229;48.856;9.088;2022-09-20T14:41:33;98535.78;;;13.74;55.29
42601;BME280;28229;48.856;9.088;2022-09-20T14:44:01;98532.66;;;13.95;54.39
42601;BME280;28229;48.856;9.088;2022-09-20T14:46:35;98530.88;;;14.07;53.64
42601;BME280;28229;48.856;9.088;2022-09-20T14:51:48;98533.69;;;14.24;50.86
42601;BME280;28229;48.856;9.088;2022-09-20T14:54:29;98538.56;;;14.39;51.79
42601;BME280;28229;48.856;9.088;2022-09-20T14:56:58;98529.81;;;14.51;51.75
42601;BME280;28229;48.856;9.088;2022-09-20T14:59:34;98530.56;;;14.58;51.19
42601;BME280;28229;48.856;9.088;2022-09-20T15:02:07;98534.97;;;14.88;50.45
42601;BME280;28229;48.856;9.088;2022-09-20T15:04:38;98533.34;;;15.10;49.51
42601;BME280;28229;48.856;9.088;2022-09-20T15:07:07;98535.97;;;15.22;48.58
42601;BME280;28229;48.856;9.088;2022-09-20T15:09:36;98532.03;;;15.48;48.10
42601;BME280;28229;48.856;9.088;2022-09-20T15:12:09;98523.38;;;15.41;47.77
42601;BME280;28229;48.856;9.088;2022-09-20T15:14:36;98531.50;;;15.63;47.86
42601;BME280;28229;48.856;9.088;2022-09-20T15:17:05;98529.28;;;15.72;48.07
42601;BME280;28229;48.856;9.088;2022-09-20T15:19:31;98532.09;;;15.77;46.88
42601;BME280;28229;48.856;9.088;2022-09-20T15:22:00;98529.78;;;15.69;45.33
42601;BME280;28229;48.856;9.088;2022-09-20T15:24:26;98530.91;;;15.73;45.07
42601;BME280;28229;48.856;9.088;2022-09-20T15:26:52;98535.16;;;15.74;45.48
42601;BME280;28229;48.856;9.088;2022-09-20T15:29:18;98530.66;;;15.86;45.08
42601;BME280;28229;48.856;9.088;2022-09-20T15:31:46;98530.19;;;15.89;42.90
42601;BME280;28229;48.856;9.088;2022-09-20T15:34:13;98537.69;;;15.92;43.48
42601;BME280;28229;48.856;9.088;2022-09-20T15:36:40;98530.84;;;15.96;43.49
42601;BME280;28229;48.856;9.088;2022-09-20T15:39:06;98524.53;;;15.97;43.60
42601;BME280;28229;48.856;9.088;2022-09-20T15:41:33;98527.59;;;15.77;44.59
42601;BME280;28229;48.856;9.088;2022-09-20T15:44:03;98521.34;;;15.84;44.19
42601;BME280;28229;48.856;9.088;2022-09-20T15:46:30;98528.41;;;15.78;43.18
42601;BME280;28229;48.856;9.088;2022-09-20T15:48:58;98533.72;;;15.78;42.73
42601;BME280;28229;48.856;9.088;2022-09-20T15:51:25;98523.63;;;15.92;43.50
42601;BME280;28229;48.856;9.088;2022-09-20T15:54:02;98524.09;;;15.89;44.06
42601;BME280;28229;48.856;9.088;2022-09-20T15:56:33;98529.28;;;15.72;44.84
42601;BME280;28229;48.856;9.088;2022-09-20T15:59:03;98525.97;;;15.76;45.15
42601;BME280;28229;48.856;9.088;2022-09-20T16:01:31;98525.19;;;15.52;45.30
42601;BME280;28229;48.856;9.088;2022-09-20T16:03:58;98523.44;;;15.70;45.27
42601;BME280;28229;48.856;9.088;2022-09-20T16:06:25;98524.41;;;15.92;45.36
42601;BME280;28229;48.856;9.088;2022-09-20T16:08:51;98521.03;;;15.97;45.40
42601;BME280;28229;48.856;9.088;2022-09-20T16:11:19;98531.16;;;15.83;45.23
42601;BME280;28229;48.856;9.088;2022-09-20T16:13:46;98530.66;;;15.86;45.54
42601;BME280;28229;48.856;9.088;2022-09-20T16:16:12;98536.47;;;15.83;45.83
42601;BME280;28229;48.856;9.088;2022-09-20T16:18:38;98538.22;;;15.77;46.36
42601;BME280;28229;48.856;9.088;2022-09-20T16:21:23;98535.34;;;15.55;46.78
42601;BME280;28229;48.856;9.088;2022-09-20T16:23:54;98541.97;;;15.29;47.49
42601;BME280;28229;48.856;9.088;2022-09-20T16:26:21;98544.19;;;15.09;48.15
42601;BME280;28229;48.856;9.088;2022-09-20T16:28:48;98538.06;;;14.96;48.78
42601;BME280;28229;48.856;9.088;2022-09-20T16:34:00;98546.00;;;14.84;49.63
42601;BME280;28229;48.856;9.088;2022-09-20T16:36:29;98549.56;;;14.66;49.90
42601;BME280;28229;48.856;9.088;2022-09-20T16:38:55;98542.03;;;14.52;50.64
42601;BME280;28229;48.856;9.088;2022-09-20T16:41:22;98547.66;;;14.43;51.33
42601;BME280;28229;48.856;9.088;2022-09-20T16:43:49;98553.50;;;14.34;51.75
42601;BME280;28229;48.856;9.088;2022-09-20T16:46:20;98553.19;;;14.12;52.69
42601;BME280;28229;48.856;9.088;2022-09-20T16:48:47;98555.44;;;13.96;54.20
42601;BME280;28229;48.856;9.088;2022-09-20T16:51:14;98558.69;;;13.98;53.97
42601;BME280;28229;48.856;9.088;2022-09-20T16:53:40;98553.53;;;13.85;54.49
42601;BME280;28229;48.856;9.088;2022-09-20T16:56:16;98564.94;;;13.85;54.46
42601;BME280;28229;48.856;9.088;2022-09-20T16:58:42;98556.16;;;13.73;55.25
42601;BME280;28229;48.856;9.088;2022-09-20T17:01:08;98556.94;;;13.74;55.86
42601;BME280;28229;48.856;9.088;2022-09-20T17:03:35;98551.09;;;13.53;56.90
42601;BME280;28229;48.856;9.088;2022-09-20T17:06:05;98552.91;;;13.52;56.99
42601;BME280;28229;48.856;9.088;2022-09-20T17:08:34;98563.81;;;13.44;57.38
42601;BME280;28229;48.856;9.088;2022-09-20T17:11:05;98555.66;;;13.46;57.48
42601;BME280;28229;48.856;9.088;2022-09-20T17:13:36;98562.38;;;13.42;57.52
42601;BME280;28229;48.856;9.088;2022-09-20T17:16:08;98564.09;;;13.36;57.47
42601;BME280;28229;48.856;9.088;2022-09-20T17:18:35;98568.22;;;13.25;57.86
42601;BME280;28229;48.856;9.088;2022-09-20T17:21:11;98573.78;;;13.17;58.55
42601;BME280;28229;48.856;9.088;2022-09-20T17:23:39;98579.53;;;13.14;59.05
42601;BME280;28229;48.856;9.088;2022-09-20T17:28:38;98577.03;;;13.19;58.92
42601;BME280;28229;48.856;9.088;2022-09-20T17:31:05;98581.69;;;12.99;59.95
42601;BME280;28229;48.856;9.088;2022-09-20T17:33:34;98579.81;;;12.81;60.93
42601;BME280;28229;48.856;9.088;2022-09-20T17:36:01;98584.13;;;12.75;61.54
42601;BME280;28229;48.856;9.088;2022-09-20T17:38:29;98587.19;;;12.72;61.23
42601;BME280;28229;48.856;9.088;2022-09-20T17:41:02;98592.72;;;12.64;61.76
42601;BME280;28229;48.856;9.088;2022-09-20T17:43:28;98590.44;;;12.67;61.60
42601;BME280;28229;48.856;9.088;2022-09-20T17:46:12;98592.59;;;12.52;61.93
42601;BME280;28229;48.856;9.088;2022-09-20T17:48:42;98595.97;;;12.34;63.05
42601;BME280;28229;48.856;9.088;2022-09-20T17:51:16;98598.84;;;12.26;64.01
42601;BME280;28229;48.856;9.088;2022-09-20T17:53:42;98595.19;;;12.27;63.41
42601;BME280;28229;48.856;9.088;2022-09-20T17:56:10;98596.63;;;12.23;63.92
42601;BME280;28229;48.856;9.088;2022-09-20T17:58:36;98595.84;;;12.15;63.84
42601;BME280;28229;48.856;9.088;2022-09-20T18:01:05;98602.38;;;12.13;63.97
42601;BME280;28229;48.856;9.088;2022-09-20T18:03:36;98606.69;;;12.00;64.13
42601;BME280;28229;48.856;9.088;2022-09-20T18:06:20;98611.16;;;12.00;64.17
42601;BME280;28229;48.856;9.088;2022-09-20T18:08:49;98615.22;;;11.96;64.25
42601;BME280;28229;48.856;9.088;2022-09-20T18:11:17;98617.25;;;11.94;64.54
42601;BME280;28229;48.856;9.088;2022-09-20T18:13:44;98624.94;;;11.95;64.62
42601;BME280;28229;48.856;9.088;2022-09-20T18:16:11;98620.50;;;11.82;65.64
42601;BME280;28229;48.856;9.088;2022-09-20T18:18:38;98626.63;;;11.76;66.48
42601;BME280;28229;48.856;9.088;2022-09-20T18:21:19;98635.16;;;11.65;67.23
42601;BME280;28229;48.856;9.088;2022-09-20T18:23:46;98630.72;;;11.59;67.42
42601;BME280;28229;48.856;9.088;2022-09-20T18:26:14;98628.91;;;11.53;67.53
42601;BME280;28229;48.856;9.088;2022-09-20T18:29:13;98636.00;;;11.46;67.86
42601;BME280;28229;48.856;9.088;2022-09-20T18:31:45;98643.72;;;11.40;68.57
42601;BME280;28229;48.856;9.088;2022-09-20T18:34:13;98649.81;;;11.34;68.69
42601;BME280;28229;48.856;9.088;2022-09-20T18:36:44;98640.91;;;11.22;69.28
42601;BME280;28229;48.856;9.088;2022-09-20T18:39:11;98650.63;;;11.15;69.73
42601;BME280;28229;48.856;9.088;2022-09-20T18:41:38;98656.09;;;11.13;69.90
42601;BME280;28229;48.856;9.088;2022-09-20T18:44:05;98644.16;;;10.97;70.45
42601;BME280;28229;48.856;9.088;2022-09-20T18:46:32;98655.88;;;10.88;70.96
42601;BME280;28229;48.856;9.088;2022-09-20T18:49:05;98659.31;;;10.82;71.28
42601;BME280;28229;48.856;9.088;2022-09-20T18:51:31;98668.03;;;10.76;71.87
42601;BME280;28229;48.856;9.088;2022-09-20T18:53:58;98668.41;;;10.73;72.34
42601;BME280;28229;48.856;9.088;2022-09-20T18:58:57;98671.84;;;10.66;72.77
42601;BME280;28229;48.856;9.088;2022-09-20T19:01:46;98682.56;;;10.65;72.94
42601;BME280;28229;48.856;9.088;2022-09-20T19:04:28;98685.44;;;10.70;73.03
42601;BME280;28229;48.856;9.088;2022-09-20T19:09:47;98688.41;;;10.60;74.18
42601;BME280;28229;48.856;9.088;2022-09-20T19:12:19;98688.22;;;10.55;74.57
42601;BME280;28229;48.856;9.088;2022-09-20T19:17:59;98699.69;;;10.41;74.81
42601;BME280;28229;48.856;9.088;2022-09-20T19:20:38;98695.78;;;10.30;75.56
42601;BME280;28229;48.856;9.088;2022-09-20T19:28:36;98710.06;;;10.07;76.53
42601;BME280;28229;48.856;9.088;2022-09-20T19:31:02;98703.72;;;9.95;77.11
42601;BME280;28229;48.856;9.088;2022-09-20T19:33:28;98706.16;;;9.97;77.10
42601;BME280;28229;48.856;9.088;2022-09-20T19:35:54;98705.31;;;9.89;77.15
42601;BME280;28229;48.856;9.088;2022-09-20T19:46:42;98720.28;;;9.61;77.72
42601;BME280;28229;48.856;9.088;2022-09-20T19:51:58;98720.44;;;9.52;78.69
42601;BME280;28229;48.856;9.088;2022-09-20T19:54:24;98728.94;;;9.55;78.98
42601;BME280;28229;48.856;9.088;2022-09-20T19:56:53;98726.16;;;9.63;78.76
42601;BME280;28229;48.856;9.088;2022-09-20T19:59:21;98720.13;;;9.69;78.25
42601;BME280;28229;48.856;9.088;2022-09-20T20:01:48;98719.53;;;9.67;77.83
42601;BME280;28229;48.856;9.088;2022-09-20T20:04:15;98717.69;;;9.67;77.91
42601;BME280;28229;48.856;9.088;2022-09-20T20:17:56;98721.72;;;9.13;82.15
42601;BME280;28229;48.856;9.088;2022-09-20T20:20:52;98726.03;;;9.00;83.01
42601;BME280;28229;48.856;9.088;2022-09-20T20:23:46;98731.84;;;9.17;82.66
42601;BME280;28229;48.856;9.088;2022-09-20T20:26:21;98728.59;;;9.14;82.52
42601;BME280;28229;48.856;9.088;2022-09-20T20:28:48;98725.72;;;9.09;82.69
42601;BME280;28229;48.856;9.088;2022-09-20T20:31:15;98731.34;;;9.06;83.29
42601;BME280;28229;48.856;9.088;2022-09-20T20:33:41;98736.84;;;9.11;83.43